Time;durP1;ratioP1;P1;durP2;ratioP2;P2;SDS_P1;SDS_P2;PMS_P1;PMS_P2;Temp;Humidity;BMP_temperature;BMP_pressure;BME280_temperature;BME280_humidity;BME280_pressure;Samples;Min_cycle;Max_cycle;Signal;HPM_P1;HPM_P2
2023/01/07 00:00:52;;;;;;;1999.90;999.90;;;7.00;99.90;;;;;;5049408;28;20024;-73
2023/01/07 00:03:18;;;;;;;1999.90;999.90;;;7.10;99.90;;;;;;5034140;28;20029;-73
2023/01/07 00:05:43;;;;;;;1999.90;999.90;;;7.10;99.90;;;;;;5035383;28;20123;-73
2023/01/07 00:08:10;;;;;;;1999.90;999.90;;;7.00;99.90;;;;;;5035472;28;20037;-72
2023/01/07 00:10:35;;;;;;;1999.90;999.90;;;7.00;99.90;;;;;;5035492;28;20079;-69
2023/01/07 00:13:02;;;;;;;1999.90;999.90;;;6.90;99.90;;;;;;5034725;28;20424;-73
2023/01/07 00:15:27;;;;;;;1999.90;999.90;;;6.90;99.90;;;;;;5033112;28;20544;-73
2023/01/07 00:17:53;;;;;;;1999.90;999.90;;;6.90;99.90;;;;;;5034637;28;20030;-69
2023/01/07 00:20:18;;;;;;;1999.90;999.90;;;6.90;99.90;;;;;;5034612;28;20080;-73
2023/01/07 00:22:44;;;;;;;1999.90;999.90;;;6.90;99.90;;;;;;5045829;28;20037;-73
2023/01/07 00:25:10;;;;;;;1999.90;999.90;;;6.90;99.90;;;;;;5054775;28;20025;-69
2023/01/07 00:27:35;;;;;;;1999.90;999.90;;;6.90;99.90;;;;;;5054557;28;20060;-72
2023/01/07 00:30:01;;;;;;;1999.90;999.90;;;6.90;99.90;;;;;;5054925;28;20105;-72
2023/01/07 00:32:51;;;;;;;1999.90;999.90;;;6.90;99.90;;;;;;5053956;28;20029;-73
2023/01/07 00:35:21;;;;;;;1999.90;999.90;;;6.80;99.90;;;;;;5054769;28;20439;-73
2023/01/07 00:37:48;;;;;;;1999.90;999.90;;;6.80;99.90;;;;;;5054717;28;20029;-72
2023/01/07 00:40:14;;;;;;;1999.90;999.90;;;6.90;99.90;;;;;;5055146;28;20036;-72
2023/01/07 00:43:02;;;;;;;1999.90;999.90;;;6.90;99.90;;;;;;5054439;28;20095;-73
2023/01/07 00:45:34;;;;;;;1999.90;999.90;;;6.90;99.90;;;;;;5054559;28;20516;-68
2023/01/07 00:48:02;;;;;;;1999.90;999.90;;;6.90;99.90;;;;;;5054570;28;20021;-72
2023/01/07 00:50:32;;;;;;;1999.90;999.90;;;6.90;99.90;;;;;;5054697;28;20071;-72
2023/01/07 00:52:57;;;;;;;1999.90;999.90;;;6.80;99.90;;;;;;5054355;28;20064;-73
2023/01/07 00:55:24;;;;;;;1999.90;999.90;;;6.90;99.90;;;;;;5054637;28;20045;-73
2023/01/07 00:57:50;;;;;;;1999.90;999.90;;;6.90;99.90;;;;;;5054673;28;20052;-73
2023/01/07 01:00:18;;;;;;;1999.90;999.90;;;6.90;99.90;;;;;;5054699;28;20048;-73
2023/01/07 01:02:43;;;;;;;1999.90;999.90;;;6.90;99.90;;;;;;5034451;28;20033;-72
2023/01/07 01:05:10;;;;;;;1999.90;999.90;;;6.90;99.90;;;;;;5033611;28;20413;-73
2023/01/07 01:07:36;;;;;;;1999.90;999.90;;;6.90;99.90;;;;;;5034173;28;20512;-73
2023/01/07 01:10:03;;;;;;;1999.90;999.90;;;6.90;99.90;;;;;;5034465;28;20104;-73
2023/01/07 01:12:29;;;;;;;1999.90;999.90;;;6.90;99.90;;;;;;5032880;28;20527;-72
2023/01/07 01:14:55;;;;;;;1999.90;999.90;;;6.80;99.90;;;;;;5034529;28;20022;-72
2023/01/07 01:17:21;;;;;;;1999.90;999.90;;;6.80;99.90;;;;;;5033639;28;20385;-73
2023/01/07 01:19:47;;;;;;;1999.90;999.90;;;6.80;99.90;;;;;;5034118;28;20566;-73
2023/01/07 01:22:12;;;;;;;1999.90;999.90;;;6.70;99.90;;;;;;5041264;28;20068;-73
2023/01/07 01:24:38;;;;;;;1999.90;999.90;;;6.70;99.90;;;;;;5052598;28;20029;-72
2023/01/07 01:27:04;;;;;;;1999.90;999.90;;;6.60;99.90;;;;;;5053259;28;20392;-72
2023/01/07 01:29:29;;;;;;;1999.90;999.90;;;6.60;99.90;;;;;;5052529;28;20029;-72
2023/01/07 01:31:55;;;;;;;1999.90;999.90;;;6.60;99.90;;;;;;5053901;28;20083;-73
2023/01/07 01:34:21;;;;;;;1999.90;999.90;;;6.50;99.90;;;;;;5054213;28;20016;-73
2023/01/07 01:36:46;;;;;;;1999.90;999.90;;;6.50;99.90;;;;;;5053982;28;20028;-72
2023/01/07 01:39:12;;;;;;;1999.90;999.90;;;6.50;99.90;;;;;;5053707;28;20122;-72
2023/01/07 01:41:37;;;;;;;1999.90;999.90;;;6.50;99.90;;;;;;5053117;28;20033;-72
2023/01/07 01:44:54;;;;;;;1999.90;999.90;;;6.40;99.90;;;;;;5053692;28;20029;-73
2023/01/07 01:47:44;;;;;;;1999.90;999.90;;;6.40;99.90;;;;;;5041399;28;20049;-72
2023/01/07 01:50:22;;;;;;;1999.90;999.90;;;6.40;99.90;;;;;;5053785;28;20396;-72
2023/01/07 01:53:03;;;;;;;1999.90;999.90;;;6.30;99.90;;;;;;5053484;28;20495;-73
2023/01/07 01:55:33;;;;;;;1999.90;999.90;;;6.40;99.90;;;;;;5053681;28;20445;-69
2023/01/07 01:58:04;;;;;;;1999.90;999.90;;;6.30;99.90;;;;;;5053179;28;20065;-72
2023/01/07 02:00:31;;;;;;;1999.90;999.90;;;6.30;99.90;;;;;;5051620;28;20021;-73
2023/01/07 02:02:58;;;;;;;1999.90;999.90;;;6.40;99.90;;;;;;5033300;28;20078;-73
2023/01/07 02:05:27;;;;;;;1999.90;999.90;;;6.40;99.90;;;;;;5033305;28;20077;-72
2023/01/07 02:07:53;;;;;;;1999.90;999.90;;;6.50;99.90;;;;;;5033354;28;20374;-73
2023/01/07 02:10:23;;;;;;;1999.90;999.90;;;6.50;99.90;;;;;;5033640;28;20021;-73
2023/01/07 02:13:26;;;;;;;1999.90;999.90;;;6.50;99.90;;;;;;5064773;28;20025;-69
2023/01/07 02:16:12;;;;;;;1999.90;999.90;;;6.40;99.90;;;;;;5033185;28;20022;-72
2023/01/07 02:18:49;;;;;;;1999.90;999.90;;;6.40;99.90;;;;;;5033249;28;20119;-73
2023/01/07 02:21:33;;;;;;;1999.90;999.90;;;6.40;99.90;;;;;;5032064;28;20087;-72
2023/01/07 02:24:04;;;;;;;1999.90;999.90;;;6.40;99.90;;;;;;5032291;28;20061;-72
2023/01/07 02:26:50;;;;;;;1999.90;999.90;;;6.40;99.90;;;;;;5032423;28;20520;-72
2023/01/07 02:29:50;;;;;;;1999.90;999.90;;;6.30;99.90;;;;;;5032753;28;20033;-72
2023/01/07 02:32:37;;;;;;;1999.90;999.90;;;6.30;99.90;;;;;;5032801;28;20028;-72
2023/01/07 02:35:26;;;;;;;1999.90;999.90;;;6.30;99.90;;;;;;5032565;28;20037;-69
2023/01/07 02:38:08;;;;;;;1999.90;999.90;;;6.30;99.90;;;;;;5032357;28;20112;-73
2023/01/07 02:41:05;;;;;;;1999.90;999.90;;;6.30;99.90;;;;;;5032925;28;20025;-73
2023/01/07 02:43:50;;;;;;;1999.90;999.90;;;6.30;99.90;;;;;;5032448;28;20029;-69
2023/01/07 02:46:31;;;;;;;1999.90;999.90;;;6.30;99.90;;;;;;5045790;28;20112;-73
2023/01/07 02:49:06;;;;;;;1999.90;999.90;;;6.30;99.90;;;;;;5052166;28;20036;-72
2023/01/07 02:51:36;;;;;;;1999.90;999.90;;;6.30;99.90;;;;;;5052621;28;20025;-72
2023/01/07 02:54:04;;;;;;;1999.90;999.90;;;6.30;99.90;;;;;;5052417;28;20025;-73
2023/01/07 02:56:46;;;;;;;1999.90;999.90;;;6.30;99.90;;;;;;5052090;28;20033;-72
2023/01/07 02:59:21;;;;;;;1999.90;999.90;;;6.30;99.90;;;;;;5052140;28;20534;-73
2023/01/07 03:02:28;;;;;;;1999.90;999.90;;;6.30;99.90;;;;;;5039674;28;20105;-72
2023/01/07 03:05:06;;;;;;;1999.90;999.90;;;6.30;99.90;;;;;;5032139;28;20513;-72
2023/01/07 03:07:53;;;;;;;1999.90;999.90;;;6.30;99.90;;;;;;5031860;28;20026;-73
2023/01/07 03:10:29;;;;;;;1999.90;999.90;;;6.30;99.90;;;;;;5032260;28;20024;-73
2023/01/07 03:13:03;;;;;;;1999.90;999.90;;;6.30;99.90;;;;;;5031709;28;20026;-69
2023/01/07 03:16:03;;;;;;;1999.90;999.90;;;6.30;99.90;;;;;;5032253;28;20457;-72
2023/01/07 03:18:33;;;;;;;1999.90;999.90;;;6.30;99.90;;;;;;5031348;28;20038;-73
2023/01/07 03:21:06;;;;;;;1999.90;999.90;;;6.20;99.90;;;;;;5031787;28;20473;-73
2023/01/07 03:23:34;;;;;;;1999.90;999.90;;;6.20;99.90;;;;;;5049513;28;20146;-72
2023/01/07 03:26:03;;;;;;;1999.90;999.90;;;6.20;99.90;;;;;;5051601;28;20021;-73
2023/01/07 03:28:33;;;;;;;1999.90;999.90;;;6.20;99.90;;;;;;5051846;28;20045;-72
2023/01/07 03:31:00;;;;;;;1999.90;999.90;;;6.30;99.90;;;;;;5051792;28;20391;-72
2023/01/07 03:33:35;;;;;;;1999.90;999.90;;;6.20;99.90;;;;;;5051792;28;20021;-73
2023/01/07 03:36:03;;;;;;;1999.90;999.90;;;6.30;99.90;;;;;;5058017;28;20013;-72
2023/01/07 03:38:29;;;;;;;1999.90;999.90;;;6.30;99.90;;;;;;5058402;28;20082;-69
2023/01/07 03:40:56;;;;;;;1999.90;999.90;;;6.30;99.90;;;;;;5058166;28;20029;-69
2023/01/07 03:43:22;;;;;;;1999.90;999.90;;;6.30;99.90;;;;;;5058064;28;20528;-73
2023/01/07 03:45:50;;;;;;;1999.90;999.90;;;6.30;99.90;;;;;;5058444;28;20105;-69
2023/01/07 03:48:16;;;;;;;1999.90;999.90;;;6.20;99.90;;;;;;5058219;28;20025;-72
2023/01/07 03:50:41;;;;;;;1999.90;999.90;;;6.20;99.90;;;;;;5058567;28;20031;-73
2023/01/07 03:53:07;;;;;;;1999.90;999.90;;;6.20;99.90;;;;;;5057885;28;20067;-69
2023/01/07 03:55:33;;;;;;;1999.90;999.90;;;6.30;99.90;;;;;;5058151;28;20057;-68
2023/01/07 03:57:58;;;;;;;1999.90;999.90;;;6.20;99.90;;;;;;5058067;28;20442;-72
2023/01/07 04:00:24;;;;;;;1999.90;999.90;;;6.20;99.90;;;;;;5057336;28;20021;-72
2023/01/07 04:02:50;;;;;;;1999.90;999.90;;;6.20;99.90;;;;;;5038265;28;20033;-72
2023/01/07 04:05:16;;;;;;;1999.90;999.90;;;6.30;99.90;;;;;;5037918;28;20097;-73
2023/01/07 04:07:41;;;;;;;1999.90;999.90;;;6.20;99.90;;;;;;5037811;28;20026;-73
2023/01/07 04:10:07;;;;;;;1999.90;999.90;;;6.30;99.90;;;;;;5038435;28;20026;-73
2023/01/07 04:12:33;;;;;;;1999.90;999.90;;;6.30;99.90;;;;;;5037830;28;20060;-73
2023/01/07 04:14:59;;;;;;;1999.90;999.90;;;6.30;99.90;;;;;;5038174;28;20061;-73
2023/01/07 04:17:24;;;;;;;1999.90;999.90;;;6.30;99.90;;;;;;5050642;28;20040;-72
2023/01/07 04:19:50;;;;;;;1999.90;999.90;;;6.30;99.90;;;;;;5058054;28;20029;-73
2023/01/07 04:22:16;;;;;;;1999.90;999.90;;;6.30;99.90;;;;;;5057100;28;20476;-72
2023/01/07 04:24:41;;;;;;;1999.90;999.90;;;6.40;99.90;;;;;;5057429;28;20036;-72
2023/01/07 04:27:07;;;;;;;1999.90;999.90;;;6.30;99.90;;;;;;5057547;28;20106;-72
2023/01/07 04:29:32;;;;;;;1999.90;999.90;;;6.30;99.90;;;;;;5056662;28;20028;-72
2023/01/07 04:31:58;;;;;;;1999.90;999.90;;;6.30;99.90;;;;;;5058511;28;20148;-73
2023/01/07 04:34:24;;;;;;;1999.90;999.90;;;6.30;99.90;;;;;;5057663;28;20485;-72
2023/01/07 04:36:50;;;;;;;1999.90;999.90;;;6.30;99.90;;;;;;5057588;28;20025;-73
2023/01/07 04:39:16;;;;;;;1999.90;999.90;;;6.20;99.90;;;;;;5057755;28;20120;-73
2023/01/07 04:41:42;;;;;;;1999.90;999.90;;;6.20;99.90;;;;;;5057712;28;20056;-72
2023/01/07 04:44:08;;;;;;;1999.90;999.90;;;6.20;99.90;;;;;;5058067;28;20040;-73
2023/01/07 04:46:34;;;;;;;1999.90;999.90;;;6.20;99.90;;;;;;5056164;28;20025;-73
2023/01/07 04:48:59;;;;;;;1999.90;999.90;;;6.20;99.90;;;;;;5054344;28;20035;-72
2023/01/07 04:51:25;;;;;;;1999.90;999.90;;;6.20;99.90;;;;;;5054655;28;20393;-73
2023/01/07 04:53:51;;;;;;;1999.90;999.90;;;6.20;99.90;;;;;;5054511;28;20029;-72
2023/01/07 04:56:16;;;;;;;1999.90;999.90;;;6.20;99.90;;;;;;5054576;28;20017;-73
2023/01/07 04:58:42;;;;;;;1999.90;999.90;;;6.10;99.90;;;;;;5054478;28;20029;-72
2023/01/07 05:01:09;;;;;;;1999.90;999.90;;;6.20;99.90;;;;;;5047233;28;20030;-69
2023/01/07 05:03:35;;;;;;;1999.90;999.90;;;6.20;99.90;;;;;;5034549;28;20034;-72
2023/01/07 05:06:02;;;;;;;1999.90;999.90;;;6.20;99.90;;;;;;5034503;28;20040;-70
2023/01/07 05:08:27;;;;;;;1999.90;999.90;;;6.30;99.90;;;;;;5034317;28;20052;-72
2023/01/07 05:10:53;;;;;;;1999.90;999.90;;;6.30;99.90;;;;;;5034221;28;20061;-72
2023/01/07 05:13:21;;;;;;;1999.90;999.90;;;6.30;99.90;;;;;;5033885;28;20025;-72
2023/01/07 05:15:47;;;;;;;1999.90;999.90;;;6.40;99.90;;;;;;5034380;28;20049;-73
2023/01/07 05:18:12;;;;;;;1999.90;999.90;;;6.40;99.90;;;;;;5066532;28;20059;-73
2023/01/07 05:20:38;;;;;;;1999.90;999.90;;;6.40;99.90;;;;;;5034094;28;20029;-69
2023/01/07 05:23:04;;;;;;;1999.90;999.90;;;6.40;99.90;;;;;;5048383;28;20155;-72
2023/01/07 05:25:31;;;;;;;1999.90;999.90;;;6.40;99.90;;;;;;5053338;28;20029;-72
2023/01/07 05:27:57;;;;;;;1999.90;999.90;;;6.40;99.90;;;;;;5052901;28;20031;-73
2023/01/07 05:30:22;;;;;;;1999.90;999.90;;;6.40;99.90;;;;;;5054134;28;20020;-69
2023/01/07 05:32:48;;;;;;;1999.90;999.90;;;6.40;99.90;;;;;;5052662;28;20021;-73
2023/01/07 05:35:14;;;;;;;1999.90;999.90;;;6.50;99.90;;;;;;5053621;28;20078;-72
2023/01/07 05:37:39;;;;;;;1999.90;999.90;;;6.50;99.90;;;;;;5053732;28;20021;-72
2023/01/07 05:40:06;;;;;;;1999.90;999.90;;;6.50;99.90;;;;;;5053816;28;20043;-69
2023/01/07 05:42:31;;;;;;;1999.90;999.90;;;6.60;99.90;;;;;;5053769;28;20031;-68
2023/01/07 05:44:57;;;;;;;1999.90;999.90;;;6.60;99.90;;;;;;5053671;28;20400;-69
2023/01/07 05:47:23;;;;;;;1999.90;999.90;;;6.60;99.90;;;;;;5052301;28;20021;-72
2023/01/07 05:49:48;;;;;;;1999.90;999.90;;;6.60;99.90;;;;;;5053186;28;20075;-72
2023/01/07 05:52:14;;;;;;;1999.90;999.90;;;6.60;99.90;;;;;;5052409;28;20117;-72
2023/01/07 05:54:40;;;;;;;1999.90;999.90;;;6.60;99.90;;;;;;5053744;28;20404;-72
2023/01/07 05:57:05;;;;;;;1999.90;999.90;;;6.70;99.90;;;;;;5052764;28;20060;-72
2023/01/07 05:59:33;;;;;;;1999.90;999.90;;;6.60;99.90;;;;;;5053384;28;20040;-73
2023/01/07 06:02:00;;;;;;;1999.90;999.90;;;6.60;99.90;;;;;;5039098;28;20049;-72
2023/01/07 06:04:25;;;;;;;1999.90;999.90;;;6.60;99.90;;;;;;5033499;28;20060;-72
2023/01/07 06:06:51;;;;;;;1999.90;999.90;;;6.60;99.90;;;;;;5033353;28;20033;-72
2023/01/07 06:09:17;;;;;;;1999.90;999.90;;;6.70;99.90;;;;;;5033059;28;20029;-72
2023/01/07 06:11:43;;;;;;;1999.90;999.90;;;6.70;99.90;;;;;;5032984;28;20477;-73
2023/01/07 06:14:08;;;;;;;1999.90;999.90;;;6.60;99.90;;;;;;5033036;28;20083;-72
2023/01/07 06:16:34;;;;;;;1999.90;999.90;;;6.60;99.90;;;;;;5033294;28;20029;-72
2023/01/07 06:19:00;;;;;;;1999.90;999.90;;;6.60;99.90;;;;;;5032575;28;20477;-71
2023/01/07 06:21:26;;;;;;;1999.90;999.90;;;6.60;99.90;;;;;;5033904;28;20389;-72
2023/01/07 06:23:51;;;;;;;1999.90;999.90;;;6.60;99.90;;;;;;5052644;28;20063;-72
2023/01/07 06:26:17;;;;;;;1999.90;999.90;;;6.60;99.90;;;;;;5052547;28;20571;-72
2023/01/07 06:28:43;;;;;;;1999.90;999.90;;;6.60;99.90;;;;;;5052375;28;20388;-73
2023/01/07 06:31:09;;;;;;;1999.90;999.90;;;6.60;99.90;;;;;;5052323;28;20060;-72
2023/01/07 06:33:36;;;;;;;1999.90;999.90;;;6.70;99.90;;;;;;5051351;28;20029;-72
2023/01/07 06:36:03;;;;;;;1999.90;999.90;;;6.70;99.90;;;;;;5044466;28;20029;-72
2023/01/07 06:38:29;;;;;;;1999.90;999.90;;;6.70;99.90;;;;;;5032780;28;20029;-72
2023/01/07 06:40:57;;;;;;;1999.90;999.90;;;6.70;99.90;;;;;;5032223;28;20507;-72
2023/01/07 06:43:23;;;;;;;1999.90;999.90;;;6.70;99.90;;;;;;5032982;28;20034;-73
2023/01/07 06:45:49;;;;;;;1999.90;999.90;;;6.70;99.90;;;;;;5042069;28;20523;-68
2023/01/07 06:48:14;;;;;;;1999.90;999.90;;;6.70;99.90;;;;;;5052431;28;20064;-72
2023/01/07 06:50:40;;;;;;;1999.90;999.90;;;6.80;99.90;;;;;;5052403;28;20028;-73
2023/01/07 06:53:06;;;;;;;1999.90;999.90;;;6.80;99.90;;;;;;5052217;28;20060;-72
2023/01/07 06:55:31;;;;;;;1999.90;999.90;;;6.80;99.90;;;;;;5052427;28;20430;-72
2023/01/07 06:57:57;;;;;;;1999.90;999.90;;;6.80;99.90;;;;;;5052210;28;20076;-69
2023/01/07 07:00:23;;;;;;;1999.90;999.90;;;6.80;99.90;;;;;;5051398;28;20025;-73
2023/01/07 07:02:48;;;;;;;1999.90;999.90;;;6.80;99.90;;;;;;5032342;28;20087;-73
2023/01/07 07:05:14;;;;;;;1999.90;999.90;;;6.80;99.90;;;;;;5032027;28;20060;-73
2023/01/07 07:07:40;;;;;;;1999.90;999.90;;;6.80;99.90;;;;;;5032031;28;20109;-72
2023/01/07 07:10:07;;;;;;;1999.90;999.90;;;6.80;99.90;;;;;;5031775;28;20532;-72
2023/01/07 07:12:37;;;;;;;1999.90;999.90;;;6.80;99.90;;;;;;5031918;28;20029;-73
2023/01/07 07:15:05;;;;;;;1999.90;999.90;;;6.90;99.90;;;;;;5032016;28;20027;-72
2023/01/07 07:17:31;;;;;;;1999.90;999.90;;;7.00;99.90;;;;;;5031498;28;20044;-72
2023/01/07 07:19:57;;;;;;;1999.90;999.90;;;7.00;99.90;;;;;;5032127;28;20030;-72
2023/01/07 07:22:22;;;;;;;1999.90;999.90;;;7.10;99.90;;;;;;5040925;28;20463;-74
2023/01/07 07:24:48;;;;;;;1999.90;999.90;;;7.10;99.90;;;;;;5051885;28;20056;-73
2023/01/07 07:27:13;;;;;;;1999.90;999.90;;;7.20;99.90;;;;;;5051382;28;20119;-72
2023/01/07 07:29:39;;;;;;;1999.90;999.90;;;7.30;99.90;;;;;;5051112;28;20036;-75
2023/01/07 07:32:05;;;;;;;1999.90;999.90;;;7.30;99.90;;;;;;5051863;28;20040;-75
2023/01/07 07:34:30;;;;;;;1999.90;999.90;;;7.30;99.90;;;;;;5052184;28;20021;-75
2023/01/07 07:36:56;;;;;;;1999.90;999.90;;;7.30;99.90;;;;;;5051822;28;20029;-75
2023/01/07 07:39:22;;;;;;;1999.90;999.90;;;7.30;99.90;;;;;;5051844;28;20029;-73
2023/01/07 07:41:47;;;;;;;1999.90;999.90;;;7.40;99.90;;;;;;5051507;28;20108;-73
2023/01/07 07:44:13;;;;;;;1999.90;999.90;;;7.40;99.90;;;;;;5051999;28;20024;-73
2023/01/07 07:46:38;;;;;;;1999.90;999.90;;;7.40;99.90;;;;;;5050667;28;20025;-73
2023/01/07 07:49:04;;;;;;;1999.90;999.90;;;7.50;99.90;;;;;;5051668;28;20037;-73
2023/01/07 07:51:30;;;;;;;1999.90;999.90;;;7.60;99.90;;;;;;5051774;28;20025;-69
2023/01/07 07:53:56;;;;;;;1999.90;999.90;;;7.60;99.90;;;;;;5050398;28;20404;-73
2023/01/07 07:56:22;;;;;;;1999.90;999.90;;;7.70;99.90;;;;;;5051620;28;20032;-73
2023/01/07 07:58:47;;;;;;;1999.90;999.90;;;7.70;99.90;;;;;;5051618;28;20021;-73
2023/01/07 08:01:13;;;;;;;1999.90;999.90;;;7.80;99.90;;;;;;5051311;28;20025;-73
2023/01/07 08:03:39;;;;;;;1999.90;999.90;;;7.90;99.90;;;;;;5051615;28;20100;-73
2023/01/07 08:06:05;;;;;;;1999.90;999.90;;;8.00;99.90;;;;;;5051019;28;20055;-72
2023/01/07 08:08:31;;;;;;;1999.90;999.90;;;8.10;99.90;;;;;;5051494;28;20052;-73
2023/01/07 08:10:56;;;;;;;1999.90;999.90;;;8.20;99.90;;;;;;5051271;28;20484;-72
2023/01/07 08:13:22;;;;;;;1999.90;999.90;;;8.30;99.90;;;;;;5051162;28;20025;-73
2023/01/07 08:15:48;;;;;;;1999.90;999.90;;;8.30;99.90;;;;;;5051564;28;20480;-73
2023/01/07 08:18:13;;;;;;;1999.90;999.90;;;8.30;99.90;;;;;;5051660;28;20021;-72
2023/01/07 08:20:39;;;;;;;1999.90;999.90;;;8.30;99.90;;;;;;5052095;28;20060;-75
2023/01/07 08:23:07;;;;;;;1999.90;999.90;;;8.40;99.90;;;;;;5054984;28;20078;-73
2023/01/07 08:25:33;;;;;;;1999.90;999.90;;;8.40;99.90;;;;;;5054720;28;20029;-73
2023/01/07 08:28:00;;;;;;;1999.90;999.90;;;8.50;99.90;;;;;;5054734;28;20563;-73
2023/01/07 08:30:27;;;;;;;1999.90;999.90;;;8.50;99.90;;;;;;5054612;28;20060;-72
2023/01/07 08:32:53;;;;;;;1999.90;999.90;;;8.50;99.90;;;;;;5055320;28;20021;-73
2023/01/07 08:35:20;;;;;;;1999.90;999.90;;;8.50;99.90;;;;;;5054855;28;20017;-73
2023/01/07 08:37:45;;;;;;;1999.90;999.90;;;8.50;99.90;;;;;;5054776;28;20112;-73
2023/01/07 08:40:12;;;;;;;1999.90;999.90;;;8.40;99.90;;;;;;5053771;28;20143;-73
2023/01/07 08:42:39;;;;;;;1999.90;999.90;;;8.40;99.90;;;;;;5054505;28;20025;-73
2023/01/07 08:45:07;;;;;;;1999.90;999.90;;;8.40;99.90;;;;;;5053484;28;20120;-73
2023/01/07 08:47:32;;;;;;;1999.90;999.90;;;8.40;99.90;;;;;;5054640;28;20029;-72
2023/01/07 08:49:58;;;;;;;1999.90;999.90;;;8.40;99.90;;;;;;5053120;28;20415;-73
2023/01/07 08:52:24;;;;;;;1999.90;999.90;;;8.40;99.90;;;;;;5055103;28;20067;-73
2023/01/07 08:54:50;;;;;;;1999.90;999.90;;;8.40;99.90;;;;;;5054861;28;20434;-73
2023/01/07 08:57:17;;;;;;;1999.90;999.90;;;8.40;99.90;;;;;;5054059;28;20392;-73
2023/01/07 08:59:43;;;;;;;1999.90;999.90;;;8.40;99.90;;;;;;5054456;28;20385;-73
2023/01/07 09:02:18;;;;;;;1999.90;999.90;;;8.40;99.90;;;;;;5038913;28;20052;-73
2023/01/07 09:04:43;;;;;;;1999.90;999.90;;;8.30;99.90;;;;;;5034621;28;20597;-74
2023/01/07 09:07:10;;;;;;;1999.90;999.90;;;8.30;99.90;;;;;;5034350;28;20108;-70
2023/01/07 09:09:36;;;;;;;1999.90;999.90;;;8.30;99.90;;;;;;5034191;28;20030;-73
2023/01/07 09:12:03;;;;;;;1999.90;999.90;;;8.30;99.90;;;;;;5034158;28;20476;-73
2023/01/07 09:14:28;;;;;;;1999.90;999.90;;;8.30;99.90;;;;;;5034202;28;20398;-73
2023/01/07 09:16:54;;;;;;;1999.90;999.90;;;8.30;99.90;;;;;;5034555;28;20029;-73
2023/01/07 09:19:20;;;;;;;1999.90;999.90;;;8.30;99.90;;;;;;5034263;28;20036;-70
2023/01/07 09:21:46;;;;;;;1999.90;999.90;;;8.30;99.90;;;;;;5037550;28;20025;-70
2023/01/07 09:24:11;;;;;;;1999.90;999.90;;;8.40;99.90;;;;;;5054054;28;20044;-73
2023/01/07 09:26:37;;;;;;;1999.90;999.90;;;8.30;99.90;;;;;;5053537;28;20057;-73
2023/01/07 09:29:03;;;;;;;1999.90;999.90;;;8.30;99.90;;;;;;5053854;28;20098;-73
2023/01/07 09:31:28;;;;;;;1999.90;999.90;;;8.40;99.90;;;;;;5053107;28;20096;-73
2023/01/07 09:33:54;;;;;;;1999.90;999.90;;;8.50;99.90;;;;;;5052850;28;20032;-74
2023/01/07 09:36:20;;;;;;;1999.90;999.90;;;8.50;99.90;;;;;;5054091;28;20100;-70
2023/01/07 09:38:45;;;;;;;1999.90;999.90;;;8.50;99.90;;;;;;5054103;28;20488;-74
2023/01/07 09:41:43;;;;;;;1999.90;999.90;;;8.50;99.90;;;;;;5053440;28;20029;-73
2023/01/07 09:44:27;;;;;;;1999.90;999.90;;;8.50;99.90;;;;;;5041768;28;20037;-74
2023/01/07 09:46:54;;;;;;;1999.90;999.90;;;8.50;99.90;;;;;;5053551;28;20033;-74
2023/01/07 09:49:26;;;;;;;1999.90;999.90;;;8.50;99.90;;;;;;5053479;28;20445;-74
2023/01/07 09:51:58;;;;;;;1999.90;999.90;;;8.60;99.90;;;;;;5053617;28;20106;-74
2023/01/07 09:54:33;;;;;;;1999.90;999.90;;;8.60;99.90;;;;;;5053658;28;20027;-73
2023/01/07 09:56:58;;;;;;;1999.90;999.90;;;8.70;99.90;;;;;;5053153;28;20400;-72
2023/01/07 09:59:24;;;;;;;1999.90;999.90;;;8.80;99.90;;;;;;5053439;28;20033;-72
2023/01/07 10:02:04;;;;;;;1999.90;999.90;;;8.90;99.90;;;;;;5040649;28;20037;-73
2023/01/07 10:04:53;;;;;;;1999.90;999.90;;;9.00;99.90;;;;;;5033644;28;20053;-74
2023/01/07 10:07:18;;;;;;;1999.90;999.90;;;9.10;99.90;;;;;;5033147;28;20037;-73
2023/01/07 10:10:15;;;;;;;1999.90;999.90;;;9.20;99.90;;;;;;5033153;28;20032;-73
2023/01/07 10:13:22;;;;;;;1999.90;999.90;;;9.30;99.90;;;;;;5032203;28;20168;-70
2023/01/07 10:16:03;;;;;;;1999.90;999.90;;;9.40;99.90;;;;;;5033184;28;20013;-73
2023/01/07 10:18:40;;;;;;;1999.90;999.90;;;9.40;99.90;;;;;;5032714;28;20028;-74
2023/01/07 10:21:11;;;;;;;1999.90;999.90;;;9.50;99.90;;;;;;5032847;28;20057;-73
2023/01/07 10:23:44;;;;;;;1999.90;999.90;;;9.60;99.90;;;;;;5051367;28;20557;-73
2023/01/07 10:26:28;;;;;;;1999.90;999.90;;;9.60;99.90;;;;;;5052573;28;20090;-73
2023/01/07 10:29:01;;;;;;;1999.90;999.90;;;9.60;99.90;;;;;;5052886;28;20476;-74
2023/01/07 10:31:27;;;;;;;1999.90;999.90;;;9.60;99.90;;;;;;5052212;28;20399;-73
2023/01/07 10:33:56;;;;;;;1999.90;999.90;;;9.70;99.90;;;;;;5051575;28;20514;-72
2023/01/07 10:36:27;;;;;;;1999.90;999.90;;;9.70;99.90;;;;;;5052958;28;20021;-72
2023/01/07 10:39:19;;;;;;;1999.90;999.90;;;9.70;99.90;;;;;;5052250;28;20020;-72
2023/01/07 10:42:14;;;;;;;1999.90;999.90;;;9.80;99.90;;;;;;5049044;28;20065;-72
2023/01/07 10:45:14;;;;;;;1999.90;999.90;;;9.90;99.90;;;;;;5052664;28;20045;-72
2023/01/07 10:47:48;;;;;;;1999.90;999.90;;;10.00;99.90;;;;;;5052243;28;20025;-72
2023/01/07 10:50:31;;;;;;;1999.90;999.90;;;10.00;99.90;;;;;;5052282;28;20048;-73
2023/01/07 10:53:30;;;;;;;1999.90;999.90;;;10.00;99.90;;;;;;5052466;28;20029;-73
2023/01/07 10:56:23;;;;;;;1999.90;999.90;;;10.00;99.90;;;;;;5052116;28;20036;-74
2023/01/07 10:58:49;;;;;;;1999.90;999.90;;;10.10;99.90;;;;;;5052652;28;20029;-73
2023/01/07 11:01:26;;;;;;;1999.90;999.90;;;10.10;99.90;;;;;;5044219;28;20031;-73
2023/01/07 11:03:55;;;;;;;1999.90;999.90;;;10.20;99.90;;;;;;5032547;28;20040;-73
2023/01/07 11:06:43;;;;;;;1999.90;999.90;;;10.20;99.90;;;;;;5032574;28;20033;-72
2023/01/07 11:09:15;;;;;;;1999.90;999.90;;;10.30;99.90;;;;;;5031782;28;20037;-73
2023/01/07 11:11:42;;;;;;;1999.90;999.90;;;10.30;99.90;;;;;;5031929;28;20432;-74
2023/01/07 11:14:14;;;;;;;1999.90;999.90;;;10.30;99.90;;;;;;5032059;28;20094;-73
2023/01/07 11:16:46;;;;;;;1999.90;999.90;;;10.40;99.90;;;;;;5032502;28;20021;-73
2023/01/07 11:19:12;;;;;;;1999.90;999.90;;;10.40;99.90;;;;;;5032039;28;20036;-73
2023/01/07 11:21:37;;;;;;;1999.90;999.90;;;10.40;99.90;;;;;;5034178;28;20026;-73
2023/01/07 11:24:18;;;;;;;1999.90;999.90;;;10.40;99.90;;;;;;5051791;28;20108;-73
2023/01/07 11:26:45;;;;;;;1999.90;999.90;;;10.50;99.90;;;;;;5050290;28;20037;-73
2023/01/07 11:29:26;;;;;;;1999.90;999.90;;;10.50;99.90;;;;;;5051769;28;20032;-73
2023/01/07 11:31:54;;;;;;;1999.90;999.90;;;10.50;99.90;;;;;;5051340;28;20018;-73
2023/01/07 11:34:27;;;;;;;1999.90;999.90;;;10.50;99.90;;;;;;5052020;28;20112;-78
2023/01/07 11:36:53;;;;;;;1999.90;999.90;;;10.50;99.90;;;;;;5052047;28;20029;-73
2023/01/07 11:39:41;;;;;;;1999.90;999.90;;;10.50;99.90;;;;;;5051967;28;20036;-73
2023/01/07 11:45:18;;;;;;;1999.90;999.90;;;10.40;99.90;;;;;;5051978;28;20040;-73
2023/01/07 11:47:55;;;;;;;1999.90;999.90;;;10.40;99.90;;;;;;5051858;28;20103;-72
2023/01/07 11:50:47;;;;;;;1999.90;999.90;;;10.40;99.90;;;;;;5052349;28;20361;-75
2023/01/07 11:53:13;;;;;;;1999.90;999.90;;;10.30;99.90;;;;;;5049532;28;20104;-73
2023/01/07 11:55:53;;;;;;;1999.90;999.90;;;10.30;99.90;;;;;;5052551;28;20548;-73
2023/01/07 11:58:19;;;;;;;1999.90;999.90;;;10.30;99.90;;;;;;5055028;28;20017;-72
2023/01/07 12:00:44;;;;;;;1999.90;999.90;;;10.40;99.90;;;;;;5051503;28;20067;-73
2023/01/07 12:03:12;;;;;;;1999.90;999.90;;;10.50;99.90;;;;;;5067603;28;20396;-73
2023/01/07 12:05:43;;;;;;;1999.90;999.90;;;10.40;99.90;;;;;;5034071;28;20056;-73
2023/01/07 12:08:19;;;;;;;1999.90;999.90;;;10.40;99.90;;;;;;5035671;28;20395;-73
2023/01/07 12:10:44;;;;;;;1999.90;999.90;;;10.40;99.90;;;;;;5036056;28;20030;-73
2023/01/07 12:13:24;;;;;;;1999.90;999.90;;;10.40;99.90;;;;;;5034709;28;20048;-73
2023/01/07 12:16:00;;;;;;;1999.90;999.90;;;10.40;99.90;;;;;;5035330;28;20556;-74
2023/01/07 12:18:57;;;;;;;1999.90;999.90;;;10.30;99.90;;;;;;5035569;28;20382;-74
2023/01/07 12:21:38;;;;;;;1999.90;999.90;;;10.20;99.90;;;;;;5035431;28;20040;-74
2023/01/07 12:24:30;;;;;;;1999.90;999.90;;;10.20;99.90;;;;;;5055273;28;20400;-73